Latest SYNOP SHIP Observations
JKFA7QZ DBLK R/V Polarstern
Day DTG UTC La.mm Lon.mm TRK/SPD Wind kt N Vis wwMETAR Tl Td Tw Sea Swl ~Dir MSLP ICE Bi
DIE01.09.26 00:00N88.24E122.30E 3kt 6019820OVC-2.6-2.9-1.6-- 01007.8//
MON31.08.26 00:00N88.00E133.36E 3kt 29010/-10BR-2.7-2.9-1.6---1004.6//
SON30.08.26 18:00N87.54E132.48W 3kt 28019/-10BR-2.4-2.6-1.5---1003.6//
SON30.08.26 12:00N87.30E137.00NW 3kt 2902184.085-SHSN-2.5-2.7-1.5-- 01002.9//
SON30.08.26 06:00N87.24E145.36NW 3kt 31018/-10BR-2.0-2.9-1.6---1001.8//
SON30.08.26 00:00N87.30E154.18SW 3kt 33014620BKN-2.3-3.4-1.5-- 01000.6//
SAM29.08.26 18:00N87.42E147.30E 3kt 32016/-10BR-2.0-2.0-1.5---1000.8//
SAM29.08.26 12:00N87.42E139.48S 3kt 1014420SCT-2.9-3.2-1.5-- 01001.1//
SAM29.08.26 00:00N88.30E133.30S 3kt 31010820OVC-4.1-4.4-1.5 0.0- 01001.6//
FRE28.08.26 12:00N88.42E089.30NE 8kt 402381070-SN-3.1-4.6-1.5 0.5- 01002.7//
DON27.08.26 18:00N87.30E041.42NE 8kt 29019/-10BR-0.4--1.6---1000.8//
DON27.08.26 00:00N86.12E024.06NW 8kt 26018820OVC-0.8--1.6-- 01008.3//
DIE25.08.26 18:00N83.12E012.06N 8kt 35016/-10BR-2.6-4.0-1.6---1015.8//
DIE25.08.26 12:00N82.42E010.30NE 8kt 3301982.0OVC-0.7--1.4-- 01011.9//
DIE25.08.26 00:00N82.24E010.30SW 3kt 1010/-10BR-1.5-1.5-1.7---1013.5//
MON24.08.26 12:00N81.42E009.30NE 3kt 3008/-10BR-1.3--1.7---1012.1//
MON24.08.26 06:00N81.30E008.54Station36008/-10BR-1.5-1.5-1.6---1013.2//
MON24.08.26 00:00N81.42E005.30E 8kt 34010820OVC-2.6-2.6-1.7-- 01014.1//
SAM22.08.26 18:00N81.30W007.30E 3kt 27010/-10BR-2.2-2.4-1.0---1011.4//
SAM22.08.26 06:00N81.42W009.36/ 3kt 32016/-10BR-0.5-2.2-1.1---1010.3//
Day DTG UTC La.mm Lon.mm TRK/SPD Wind kt N Vis wwMETAR Tl Td Tw Sea Swl ~Dir MSLP ICE Bi
SAM22.08.26 00:00N81.42W010.00/ 3kt 33021/-10BR-0.3-0.9-1.1---1009.1//
FRE21.08.26 18:00N81.42W009.30S 3kt 35021/-10BR 0.5 0.1-1.2---1005.9//
FRE21.08.26 12:00N81.42W009.36Station21016/-10BR 1.9-0.5-1.2---1004.1//
FRE21.08.26 06:00N81.42W009.36Station17014/-10BR-3.2-3.2-1.2---1006.9//
FRE21.08.26 00:00N81.42W009.30Station22006/-10BR-1.4--1.2---1010.6//
DON20.08.26 18:00N81.42W009.36Station33006/-10BR-2.5-2.5-1.3---1011.4//
DON20.08.26 00:00N81.54W009.06Station36008810OVC-2.1--1.3-- 01011.8//
MIT19.08.26 12:00N81.54W008.00/ 3kt 17012/-10BR-2.0--1.3---1009.2//
MIT19.08.26 06:00N82.00W006.00NW 8kt 18019/-10BR-1.6--1.3---1008.7//
DIE18.08.26 18:00N81.30W004.30N 3kt 18018/-10BR-1.4-1.4-1.5---1010.5//
DIE18.08.26 00:00N81.30W005.12Station2001422.010BR-2.3--1.4-- 01009.9//
MON17.08.26 18:00N81.24W004.42/ 3kt 23010/-10BR-0.5--1.6---1009.2//
MON17.08.26 06:00N81.12W001.48/ 3kt 26006/-10BR-1.4-1.4-1.5---1010.5//
MON17.08.26 00:00N81.00W003.06/ 3kt 29010820OVC-0.9-1.3-1.5-- 01010.4//
SON16.08.26 18:00N81.00W003.42/ 3kt 30012/-10BR-1.1-1.6-1.5---1009.8//
SON16.08.26 12:00N80.54W001.48NW 8kt 30010/-10BR-0.8-1.0-1.6---1008.2//
SON16.08.26 06:00N81.00W001.06SE 3kt 28014/-10BR-0.6-0.6-1.6---1006.7//
SAM15.08.26 18:00N80.30E002.06NE 8kt 29012/-10BR-1.2-1.2-0.7---1006.8//
SAM15.08.26 06:00N79.12E000.48NE 8kt 30010/-10BR-1.2--0.5---1007.3//
SAM15.08.26 00:00N78.42W001.18N 8kt 34012820OVC-0.1-0.3 2.3 0.5 1.01401007.2//
Day DTG UTC La.mm Lon.mm TRK/SPD Wind kt N Vis wwMETAR Tl Td Tw Sea Swl ~Dir MSLP ICE Bi
FRE14.08.26 18:00N78.42W004.00E 8kt 34006/-10BR 0.2--0.9---1007.1//
FRE14.08.26 12:00N78.30W006.42E 8kt 22004/-10BR 0.9 0.5-0.7---1007.3//
FRE14.08.26 06:00N78.30W010.54E 13kt 29002/-10BR 2.4-1.3 1.3---1007.9//
FRE14.08.26 00:00N78.30W014.48NE 8kt 22012320SCT 0.6-1.7-0.2-- 01009.9//
DON13.08.26 18:00N78.42W015.36S 3kt 23010/-10BR 1.0-0.2-1.0---1012.8//
DON13.08.26 06:00N79.00W016.48Station21016/-10BR 0.9-1.8-0.7---1017.6//
MIT12.08.26 12:00N79.00W017.00/ 3kt 29014/-10BR 2.9-2.6-1.3---1015.4//
DIE11.08.26 18:00N79.00W017.00Station 2010/-10BR 0.4-2.6-0.9---1013.4//
DIE11.08.26 12:00N78.42W017.30N 3kt 12006/-10BR 0.8-1.5 0.7---1010.6//
DIE11.08.26 06:00N78.12W017.06W 3kt 24010/-10BR 1.1-2.8 0.0---1009.6//
MON10.08.26 18:00N78.12W009.30W 13kt 35035/-10BR 0.6-2.4 2.6---1002.9//
MON10.08.26 12:00N78.00W005.12/ 3kt 32035/-10BR-0.3-0.8 1.3---1001.2//
MON10.08.26 06:00N78.12W002.06W 13kt 34029/-10BR-0.3-3.3 4.5---1000.6//
MON10.08.26 00:00N78.00E002.48W 8kt 34025620BKN 2.1-2.9 7.2 0.5 2.0330998.0//
SON09.08.26 18:00N78.00E008.00W 8kt 27025/-10BR 6.0 5.3 8.1---995.4//
SON09.08.26 12:00N78.00E013.00W 8kt 31012820OVC 4.6 1.5 7.2 0.5 1.0300997.8//
SAM08.08.26 12:00N76.30E012.48N 13kt 16006/-10BR 3.8 0.7 8.5---1006.4//
FRE07.08.26 18:00N74.00E016.06N 13kt 30016/-10BR 7.0 3.3 9.8---1003.0//
FRE07.08.26 12:00N73.00E017.18N 13kt 29014/-10BR 8.8 6.810.7---1004.6//
FRE07.08.26 06:00N72.00E018.30N 8kt 2901471010BR 8.0 6.510.9 0.5 1.03601005.0//
Day DTG UTC La.mm Lon.mm TRK/SPD Wind kt N Vis wwMETAR Tl Td Tw Sea Swl ~Dir MSLP ICE Bi
DON06.08.26 18:00N70.00E020.06NE 8kt 1019/-10BR11.0 7.911.3---1005.3//
DON06.08.26 12:00N69.42E019.06Station 5012/-10BR13.6 5.610.5---1007.4//
MIT05.08.26 12:00N69.42E019.06Station22012/-10BR11.0 7.610.6---1012.6//
MIT05.08.26 00:00N69.42E019.06Station23010/-10BR 9.0 7.510.5---1012.2//
DIE04.08.26 12:00N69.42E019.06Station29012/-10BR10.6 7.410.4---1011.4//
DIE04.08.26 06:00N69.42E019.06Station27010/-10BR 9.1 8.110.5---1010.5//
DIE04.08.26 00:00N69.42E019.06Station32010/-10BR10.2 8.010.6---1009.9//
MON03.08.26 00:00N70.30E020.06SE 8kt 8012620BKN11.310.411.7 1.0 1.5 501008.3//
SON02.08.26 12:00N72.00E017.18SE 8kt 17004420SCT11.710.012.6 0.5 2.0 501010.6//
SON02.08.26 06:00N72.42E015.48SE 8kt 1002/-10BR10.410.210.9---1008.8//
SAM01.08.26 18:00N74.30E011.48SE 8kt 5029/-10BR 6.7 5.6 8.9---1007.9//
SAM01.08.26 06:00N76.12E007.12SE 8kt 5016/-10BR 8.0 6.8 8.3---1014.0//
FRE31.07.26 12:00N78.30E005.00Station 1019450SCT 5.3 3.5 8.4 1.0 1.5 101017.6//
FRE31.07.26 06:00N78.30E005.00Station 2012/-10BR 5.3 5.1 8.3---1017.2//
DON30.07.26 00:00N79.00E004.54SW 8kt 1012250FEW 3.6 1.9 5.4 0.5--1016.004
MIT29.07.26 12:00N79.00E006.54S 8kt 3300425011MIFG 4.4 3.4 5.4 0.5--1015.9//
MIT29.07.26 06:00N79.00E006.42Station36006/-10BR 1.6- 5.8---1015.2//
DIE28.07.26 18:00N79.30E005.00Station34006/-10BR 0.0- 5.1---1014.6//
DIE28.07.26 12:00N79.30E005.00E 3kt 29014550BKN 1.5 0.3 4.8 0.5 1.0 801013.0//
DIE28.07.26 00:00N79.42E004.24Station36010250FEW-0.2-3.3 0.4 1.0 1.0 801010.414
Day DTG UTC La.mm Lon.mm TRK/SPD Wind kt N Vis wwMETAR Tl Td Tw Sea Swl ~Dir MSLP ICE Bi
MON27.07.26 18:00N79.42E004.00SE 8kt 4012/-10BR-0.4-3.7 1.3---1010.0//
MON27.07.26 06:00N79.54E003.06Station 3019/-10BR-0.6-2.9 0.2---1010.9//
MON27.07.26 00:00N79.54E003.00SW 3kt 301974.058DZRA-0.6-1.4-0.2 0.5--1010.324
SON26.07.26 12:00N79.42E004.24Station 100852011MIFG 0.9 0.0 1.1 0.5 1.0 901005.414
SAM25.07.26 12:00N79.00E004.24Station35018850OVC 1.8 0.9 3.6 1.0 1.01701001.114
FRE24.07.26 18:00N79.00E003.30Station 7010/-10BR 6.2 2.5 3.0---1007.2//
FRE24.07.26 06:00N79.00E003.36Station11016/-10BR 4.5- 1.7---1005.8//
DON23.07.26 00:00N79.00E004.12NE 3kt 200148-OVC 2.7 1.6 4.6 0.5--1007.714
MIT22.07.26 18:00N79.00E004.00Station19018/-10BR 2.5 1.1 4.5---1007.4//
MIT22.07.26 12:00N79.00E004.00Station18012/2010BR 1.3 0.5 3.9---1008.7//
MIT22.07.26 00:00N79.00E004.00E 3kt 25004450SCT 1.3-0.4 4.1 0.0--1010.624
DIE21.07.26 18:00N79.00E004.12W 8kt 32010/-10BR-1.1-1.1-0.2---1011.8//
DIE21.07.26 12:00N79.00E005.30Station31010720BKN 1.0 0.2 6.2 0.5 1.0 101012.414
MON20.07.26 18:00N79.00E006.30W 8kt 32010/-10BR 0.6-1.1 3.7---1010.1//
MON20.07.26 12:00N79.00E008.18/ 3kt 28006750BKN 1.7 0.0 5.0 0.5 1.03601010.5//
MON20.07.26 06:00N78.54E009.30Station30012/-10BR 2.8-1.5 7.5---1009.7//
MON20.07.26 00:00N79.00E010.06W 8kt 29016650BKN 3.2- 7.0 1.0 1.5 101009.0//
SON19.07.26 18:00N79.00E009.30E 8kt 32016/-10BR 3.1- 7.5---1009.4//
SON19.07.26 12:00N79.00E008.00E 8kt 32023820OVC 2.4- 8.3 1.0 1.5 101009.7//
SON19.07.26 06:00N79.00E007.00Station33023/-10BR 0.9- 7.3---1009.0//
Day DTG UTC La.mm Lon.mm TRK/SPD Wind kt N Vis wwMETAR Tl Td Tw Sea Swl ~Dir MSLP ICE Bi
SON19.07.26 00:00N79.00E006.00Station34019820OVC-0.6- 7.1 1.0 2.0 101010.0//
SAM18.07.26 18:00N79.00E007.00Station35023/-10BR 2.1- 7.2---1008.7//
SAM18.07.26 00:00N79.00E007.00S 3kt 3602584.0OVC 3.8- 7.1 1.0- 01003.4//
FRE17.07.26 12:00N79.00E002.42Station33019720BKN-0.7--0.4 0.0--1003.424
FRE17.07.26 00:00N79.00E002.42Station2701284.0OVC-0.2--0.3 0.0--1003.524
DON16.07.26 00:00N79.00E002.42NW 3kt 100644.040VCFG 0.9--0.5 0.0 1.01801004.624
MIT15.07.26 18:00N79.00E002.42Station 3012/-10BR-0.1--0.6---1004.7//
MIT15.07.26 12:00N78.54E000.30NE 8kt 300880.247+FG-2.0--0.4 0.0--1004.224
DIE14.07.26 12:00N78.42W002.42NW 3kt 20016350FEW 0.8--0.7 0.0--1004.824
DIE14.07.26 06:00N78.42W002.42Station24014/-10BR 0.6--0.8---1005.9//
DIE14.07.26 00:00N78.42W003.42S 3kt 27018520SCT 1.5--1.0 0.5--1005.224